Time;durP1;ratioP1;P1;durP2;ratioP2;P2;SDS_P1;SDS_P2;PMS_P1;PMS_P2;Temp;Humidity;BMP_temperature;BMP_pressure;BME280_temperature;BME280_humidity;BME280_pressure;Samples;Min_cycle;Max_cycle;Signal;HPM_P1;HPM_P2
2023/03/20 00:00:21;;;;;;;15.00;11.50;;;11.60;1.00;;;;;;5057810;28;20535;-79
2023/03/20 00:02:47;;;;;;;15.47;9.30;;;11.60;1.00;;;;;;5059685;28;20856;-79
2023/03/20 00:05:21;;;;;;;11.77;8.93;;;11.60;1.00;;;;;;5064355;28;20525;-78
2023/03/20 00:07:49;;;;;;;8.43;7.37;;;11.60;1.00;;;;;;5076158;28;20420;-80
2023/03/20 00:10:18;;;;;;;8.20;7.50;;;11.50;1.00;;;;;;5082010;28;20396;-77
2023/03/20 00:12:47;;;;;;;7.53;6.73;;;11.50;30.60;;;;;;5081950;28;20507;-78
2023/03/20 00:15:26;;;;;;;8.37;6.77;;;11.30;99.90;;;;;;5079807;28;20469;-78
2023/03/20 00:17:54;;;;;;;6.47;5.87;;;11.30;99.90;;;;;;5070268;28;20447;-79
2023/03/20 00:20:21;;;;;;;6.67;5.90;;;11.30;99.90;;;;;;5063730;28;20445;-79
2023/03/20 00:22:48;;;;;;;6.83;6.23;;;11.20;99.90;;;;;;5066134;28;20455;-80
2023/03/20 00:25:16;;;;;;;7.57;6.17;;;11.20;99.90;;;;;;5060327;28;20522;-78
2023/03/20 00:27:44;;;;;;;6.40;5.80;;;11.20;99.90;;;;;;5058488;28;20436;-79
2023/03/20 00:30:22;;;;;;;7.17;6.47;;;11.20;99.90;;;;;;5059741;28;20506;-78
2023/03/20 00:32:51;;;;;;;6.50;5.53;;;11.30;99.90;;;;;;5058936;28;20433;-79
2023/03/20 00:35:26;;;;;;;7.60;6.40;;;11.30;1.00;;;;;;5061521;28;20462;-79
2023/03/20 00:37:53;;;;;;;7.27;6.60;;;11.10;1.00;;;;;;5063963;28;20469;-79
2023/03/20 00:40:21;;;;;;;6.90;6.20;;;11.10;99.90;;;;;;5066295;28;20449;-78
2023/03/20 00:42:51;;;;;;;6.40;5.50;;;11.00;99.90;;;;;;5064069;28;20491;-79
2023/03/20 00:45:20;;;;;;;7.47;5.47;;;11.00;1.00;;;;;;5065204;28;20477;-79
2023/03/20 00:47:51;;;;;;;7.33;6.67;;;10.90;99.90;;;;;;5059598;28;20448;-80
2023/03/20 00:50:22;;;;;;;6.53;5.83;;;10.90;99.90;;;;;;5066004;28;20464;-80
2023/03/20 00:52:50;;;;;;;10.10;6.50;;;10.80;99.90;;;;;;5066091;28;20440;-78
2023/03/20 00:55:17;;;;;;;8.77;6.90;;;10.80;1.00;;;;;;5063100;28;20453;-78
2023/03/20 00:57:47;;;;;;;6.57;5.60;;;10.70;99.90;;;;;;5056739;28;20484;-78
2023/03/20 01:00:25;;;;;;;7.00;6.37;;;10.70;1.00;;;;;;5060719;28;20453;-78
2023/03/20 01:02:56;;;;;;;10.10;7.33;;;10.70;99.90;;;;;;5060109;28;20471;-78
2023/03/20 01:05:24;;;;;;;9.50;7.03;;;10.70;1.00;;;;;;5059779;28;20476;-78
2023/03/20 01:07:50;;;;;;;8.17;7.20;;;10.60;1.00;;;;;;5057183;28;20616;-78
2023/03/20 01:10:17;;;;;;;7.67;6.50;;;10.60;1.00;;;;;;5061028;28;20419;-78
2023/03/20 01:12:46;;;;;;;9.43;6.70;;;10.50;1.00;;;;;;5057117;28;20459;-78
2023/03/20 01:15:20;;;;;;;8.77;5.33;;;10.60;1.00;;;;;;5056794;28;20515;-78
2023/03/20 01:17:47;;;;;;;7.37;6.33;;;10.60;1.00;;;;;;5062035;28;20495;-78
2023/03/20 01:20:19;;;;;;;6.30;5.70;;;10.50;1.00;;;;;;5073503;28;20473;-78
2023/03/20 01:22:45;;;;;;;10.53;5.80;;;10.60;1.00;;;;;;5073951;28;20448;-77
2023/03/20 01:25:12;;;;;;;7.50;6.77;;;10.50;1.00;;;;;;5069619;28;21005;-78
2023/03/20 01:27:40;;;;;;;7.40;6.30;;;10.60;1.00;;;;;;5063786;28;20483;-79
2023/03/20 01:30:21;;;;;;;6.20;5.60;;;10.60;1.00;;;;;;5058885;28;20447;-78
2023/03/20 01:32:48;;;;;;;6.30;5.60;;;10.60;1.00;;;;;;5057640;28;20432;-78
2023/03/20 01:35:19;;;;;;;9.30;7.00;;;10.60;99.90;;;;;;5056776;28;20532;-78
2023/03/20 01:37:47;;;;;;;6.83;6.20;;;10.60;99.90;;;;;;5056412;28;20478;-79
2023/03/20 01:40:26;;;;;;;7.90;7.13;;;10.60;1.00;;;;;;5055820;28;20911;-80
2023/03/20 01:42:53;;;;;;;7.13;6.43;;;10.60;1.00;;;;;;5056016;28;20551;-79
2023/03/20 01:45:23;;;;;;;7.80;6.50;;;10.50;1.00;;;;;;5055759;28;20451;-79
2023/03/20 01:47:51;;;;;;;7.97;6.80;;;10.50;1.00;;;;;;5056126;28;20473;-79
2023/03/20 01:50:25;;;;;;;8.37;7.10;;;10.50;1.00;;;;;;5056473;28;20859;-79
2023/03/20 01:52:59;;;;;;;7.70;6.97;;;10.70;1.00;;;;;;5055564;28;20519;-79
2023/03/20 01:55:26;;;;;;;11.20;7.70;;;10.40;1.00;;;;;;5055632;28;20475;-79
2023/03/20 01:57:55;;;;;;;7.73;7.07;;;10.50;1.00;;;;;;5055486;28;20847;-79
2023/03/20 02:00:22;;;;;;;7.37;6.77;;;10.50;1.00;;;;;;5056230;28;20465;-79
2023/03/20 02:02:50;;;;;;;17.00;12.03;;;10.50;1.00;;;;;;5056153;28;20886;-80
2023/03/20 02:05:20;;;;;;;23.50;14.40;;;10.50;1.00;;;;;;5056632;28;20468;-79
2023/03/20 02:07:56;;;;;;;26.27;14.90;;;10.50;1.00;;;;;;5055884;28;20443;-79
2023/03/20 02:10:23;;;;;;;22.03;16.00;;;10.50;1.00;;;;;;5055900;28;20912;-79
2023/03/20 02:12:51;;;;;;;18.50;12.27;;;10.50;1.00;;;;;;5054933;28;20933;-79
2023/03/20 02:15:18;;;;;;;12.80;10.30;;;10.50;1.00;;;;;;5055776;28;20466;-79
2023/03/20 02:17:45;;;;;;;8.77;7.87;;;10.50;1.00;;;;;;5055953;28;20488;-79
2023/03/20 02:20:22;;;;;;;7.33;6.60;;;10.50;1.00;;;;;;5057421;28;20539;-79
2023/03/20 02:23:32;;;;;;;7.33;6.63;;;10.50;1.00;;;;;;5057389;28;20427;-79
2023/03/20 02:26:31;;;;;;;8.33;6.90;;;10.50;1.00;;;;;;5055579;28;20478;-79
2023/03/20 02:29:29;;;;;;;9.90;8.03;;;10.40;1.00;;;;;;5054977;28;20427;-78
2023/03/20 02:32:15;;;;;;;9.13;7.67;;;10.40;1.00;;;;;;5055482;28;20476;-79
2023/03/20 02:35:12;;;;;;;7.80;7.10;;;10.30;1.00;;;;;;5055361;28;20428;-79
2023/03/20 02:37:53;;;;;;;10.87;7.93;;;10.40;1.00;;;;;;5055668;28;20468;-79
2023/03/20 02:40:28;;;;;;;11.33;7.20;;;10.30;1.00;;;;;;5055618;28;20473;-78
2023/03/20 02:43:03;;;;;;;8.53;7.23;;;10.20;1.00;;;;;;5055250;28;20439;-79
2023/03/20 02:45:36;;;;;;;12.93;8.13;;;10.20;1.00;;;;;;5054996;28;20479;-80
2023/03/20 02:48:12;;;;;;;8.33;7.50;;;10.20;1.00;;;;;;5054998;28;20441;-80
2023/03/20 02:50:47;;;;;;;8.47;7.70;;;10.20;1.00;;;;;;5058893;28;20941;-79
2023/03/20 02:53:26;;;;;;;7.93;7.23;;;10.20;1.00;;;;;;5055968;28;20439;-78
2023/03/20 02:55:59;;;;;;;8.30;7.50;;;10.20;1.00;;;;;;5057420;28;20508;-78
2023/03/20 02:58:33;;;;;;;10.40;7.83;;;10.20;1.00;;;;;;5054020;28;20455;-78
2023/03/20 03:01:06;;;;;;;8.50;7.33;;;10.20;1.00;;;;;;5054262;28;20433;-78
2023/03/20 03:03:37;;;;;;;8.10;7.47;;;10.20;1.00;;;;;;5053524;28;20441;-77
2023/03/20 03:06:09;;;;;;;7.63;6.47;;;10.20;1.00;;;;;;5052892;28;20468;-79
2023/03/20 03:08:42;;;;;;;8.40;7.13;;;10.20;1.00;;;;;;5054898;28;20455;-78
2023/03/20 03:11:10;;;;;;;7.63;6.80;;;10.20;1.00;;;;;;5053845;28;20431;-78
2023/03/20 03:13:42;;;;;;;8.23;6.87;;;10.20;1.00;;;;;;5054777;28;20448;-78
2023/03/20 03:16:14;;;;;;;7.43;6.83;;;10.30;1.00;;;;;;5055673;28;20472;-78
2023/03/20 03:18:42;;;;;;;7.13;6.50;;;10.40;1.00;;;;;;5054039;28;20472;-77
2023/03/20 03:21:13;;;;;;;8.50;6.97;;;10.40;1.00;;;;;;5052949;28;21009;-78
2023/03/20 03:23:45;;;;;;;7.70;6.90;;;10.30;1.00;;;;;;5054731;28;20932;-78
2023/03/20 03:26:19;;;;;;;9.50;8.50;;;10.40;1.00;;;;;;5053801;28;20987;-77
2023/03/20 03:28:48;;;;;;;8.60;7.73;;;10.40;1.00;;;;;;5053177;28;20918;-77
2023/03/20 03:31:17;;;;;;;8.10;7.30;;;10.30;1.00;;;;;;5053040;28;20433;-78
2023/03/20 03:33:48;;;;;;;7.10;6.50;;;10.30;1.00;;;;;;5053299;28;20457;-78
2023/03/20 03:36:32;;;;;;;13.43;7.03;;;10.50;1.00;;;;;;5053369;28;20475;-77
2023/03/20 03:39:06;;;;;;;8.00;7.00;;;10.40;1.00;;;;;;5052981;28;20441;-78
2023/03/20 03:41:40;;;;;;;9.20;6.90;;;10.40;1.00;;;;;;5052677;28;20437;-78
2023/03/20 03:44:13;;;;;;;7.73;6.93;;;10.50;1.00;;;;;;5052871;28;20805;-77
2023/03/20 03:46:45;;;;;;;9.73;7.50;;;10.50;1.00;;;;;;5052498;28;20479;-78
2023/03/20 03:49:16;;;;;;;10.17;7.63;;;10.50;1.00;;;;;;5052903;28;20439;-78
2023/03/20 03:51:45;;;;;;;9.03;7.90;;;10.50;1.00;;;;;;5052722;28;20908;-80
2023/03/20 03:54:17;;;;;;;10.67;7.60;;;10.60;1.00;;;;;;5054554;28;20447;-77
2023/03/20 03:56:46;;;;;;;7.80;7.00;;;10.60;1.00;;;;;;5054966;28;20471;-77
2023/03/20 03:59:20;;;;;;;11.20;8.03;;;10.50;1.00;;;;;;5054986;28;20444;-77
2023/03/20 04:01:49;;;;;;;7.40;6.80;;;10.40;1.00;;;;;;5055182;28;20436;-77
2023/03/20 04:04:18;;;;;;;8.83;7.20;;;10.40;1.00;;;;;;5054700;28;20423;-77
2023/03/20 04:06:44;;;;;;;8.77;7.77;;;10.30;1.00;;;;;;5056258;28;20476;-78
2023/03/20 04:09:13;;;;;;;7.97;7.27;;;10.30;1.00;;;;;;5054545;28;20481;-77
2023/03/20 04:11:40;;;;;;;9.90;8.03;;;10.30;1.00;;;;;;5053131;28;20453;-77
2023/03/20 04:14:07;;;;;;;8.97;8.07;;;10.30;1.00;;;;;;5052325;28;20454;-78
2023/03/20 04:16:33;;;;;;;9.27;8.33;;;10.30;1.00;;;;;;5053289;28;20467;-78
2023/03/20 04:19:00;;;;;;;8.77;7.87;;;10.30;1.00;;;;;;5056112;28;20486;-77
2023/03/20 04:21:27;;;;;;;9.07;7.30;;;10.20;1.00;;;;;;5056125;28;20456;-79
2023/03/20 04:23:54;;;;;;;9.20;8.00;;;10.20;1.00;;;;;;5056991;28;20452;-77
2023/03/20 04:26:22;;;;;;;10.60;8.40;;;10.20;1.00;;;;;;5056183;28;21004;-77
2023/03/20 04:28:49;;;;;;;15.50;8.60;;;10.60;65.90;;;;;;5056471;28;20444;-78
2023/03/20 04:31:16;;;;;;;8.30;7.63;;;10.30;1.00;;;;;;5068061;28;20425;-76
2023/03/20 04:33:43;;;;;;;9.17;8.03;;;10.30;1.00;;;;;;5071658;28;20949;-78
2023/03/20 04:36:10;;;;;;;8.00;7.20;;;10.30;1.00;;;;;;5056816;28;20473;-78
2023/03/20 04:38:37;;;;;;;9.67;8.67;;;10.20;1.00;;;;;;5056532;28;20480;-78
2023/03/20 04:41:05;;;;;;;10.33;9.33;;;10.20;1.00;;;;;;5057482;28;20814;-77
2023/03/20 04:43:33;;;;;;;8.90;8.10;;;10.20;1.00;;;;;;5056190;28;20455;-77
2023/03/20 04:46:00;;;;;;;9.23;7.80;;;10.10;1.00;;;;;;5056411;28;20475;-78
2023/03/20 04:48:27;;;;;;;9.10;8.20;;;10.00;1.00;;;;;;5056708;28;20452;-77
2023/03/20 04:50:55;;;;;;;9.67;7.90;;;9.90;1.00;;;;;;5057462;28;20460;-78
2023/03/20 04:53:21;;;;;;;12.10;9.57;;;10.00;1.00;;;;;;5068501;28;20455;-76
2023/03/20 04:55:49;;;;;;;9.30;8.40;;;10.00;1.00;;;;;;5080336;28;20480;-76
2023/03/20 04:58:16;;;;;;;12.00;10.73;;;10.00;1.00;;;;;;5079970;28;20478;-76
2023/03/20 05:00:45;;;;;;;17.90;10.63;;;10.00;1.00;;;;;;5060365;28;20444;-77
2023/03/20 05:03:11;;;;;;;10.30;8.93;;;10.10;2.90;;;;;;5055513;28;20427;-77
2023/03/20 05:05:38;;;;;;;13.83;9.80;;;10.10;3.80;;;;;;5055558;28;20495;-77
2023/03/20 05:08:06;;;;;;;10.50;9.40;;;10.10;15.50;;;;;;5055454;28;20447;-77
2023/03/20 05:10:32;;;;;;;10.63;8.83;;;10.10;1.00;;;;;;5054995;28;20452;-77
2023/03/20 05:13:00;;;;;;;11.03;9.83;;;10.20;19.60;;;;;;5054763;28;20460;-77
2023/03/20 05:15:26;;;;;;;12.13;9.50;;;10.30;94.80;;;;;;5054833;28;20534;-78
2023/03/20 05:17:55;;;;;;;10.27;9.13;;;10.20;1.00;;;;;;5055204;28;20567;-78
2023/03/20 05:20:21;;;;;;;14.77;10.37;;;10.20;2.10;;;;;;5054817;28;20447;-77
2023/03/20 05:22:50;;;;;;;10.83;9.53;;;10.20;7.80;;;;;;5054685;28;20423;-77
2023/03/20 05:25:17;;;;;;;11.30;9.60;;;10.20;10.80;;;;;;5055022;28;20531;-77
2023/03/20 05:27:44;;;;;;;12.73;10.97;;;10.20;11.80;;;;;;5054293;28;20447;-78
2023/03/20 05:30:12;;;;;;;13.30;10.57;;;10.30;30.00;;;;;;5054265;28;20447;-79
2023/03/20 05:32:40;;;;;;;12.53;10.67;;;10.30;33.40;;;;;;5054266;28;20453;-78
2023/03/20 05:35:09;;;;;;;11.43;10.23;;;10.20;99.90;;;;;;5053906;28;20444;-77
2023/03/20 05:37:36;;;;;;;12.57;10.97;;;10.30;31.30;;;;;;5054456;28;20601;-78
2023/03/20 05:40:03;;;;;;;12.40;10.83;;;10.30;39.30;;;;;;5055356;28;20457;-79
2023/03/20 05:42:30;;;;;;;17.47;12.87;;;10.40;39.80;;;;;;5055053;28;20451;-78
2023/03/20 05:44:57;;;;;;;11.50;10.43;;;10.40;37.30;;;;;;5054497;28;20483;-78
2023/03/20 05:47:23;;;;;;;12.30;10.90;;;10.30;45.40;;;;;;5055173;28;20449;-78
2023/03/20 05:49:50;;;;;;;12.40;11.07;;;10.40;57.40;;;;;;5054367;28;20547;-78
2023/03/20 05:52:18;;;;;;;14.80;12.37;;;10.40;53.70;;;;;;5055213;28;20443;-79
2023/03/20 05:54:46;;;;;;;12.63;11.20;;;10.00;99.90;;;;;;5055100;28;20964;-78
2023/03/20 05:57:13;;;;;;;12.80;11.50;;;10.30;67.20;;;;;;5055292;28;20456;-78
2023/03/20 05:59:39;;;;;;;14.30;11.70;;;10.30;54.70;;;;;;5055276;28;20454;-78
2023/03/20 06:02:07;;;;;;;16.80;12.30;;;10.30;55.10;;;;;;5056569;28;20444;-78
2023/03/20 06:04:34;;;;;;;16.87;13.50;;;10.10;99.90;;;;;;5054523;28;20426;-78
2023/03/20 06:07:00;;;;;;;22.13;13.30;;;10.20;98.10;;;;;;5054737;28;20809;-78
2023/03/20 06:09:29;;;;;;;14.67;13.17;;;10.30;50.30;;;;;;5054988;28;20810;-78
2023/03/20 06:11:56;;;;;;;18.33;14.33;;;10.30;86.70;;;;;;5054472;28;20517;-78
2023/03/20 06:14:23;;;;;;;15.67;12.90;;;10.40;38.40;;;;;;5053657;28;20447;-78
2023/03/20 06:16:49;;;;;;;23.60;15.53;;;10.50;93.60;;;;;;5053710;28;20472;-77
2023/03/20 06:19:16;;;;;;;18.67;13.80;;;10.60;91.90;;;;;;5053590;28;20493;-77
2023/03/20 06:21:43;;;;;;;17.30;14.40;;;10.60;72.40;;;;;;5053516;28;20974;-77
2023/03/20 06:24:10;;;;;;;19.50;13.93;;;10.60;74.40;;;;;;5054342;28;20499;-77
2023/03/20 06:26:38;;;;;;;17.63;14.50;;;10.70;92.00;;;;;;5055487;28;20471;-78
2023/03/20 06:29:05;;;;;;;19.47;15.07;;;10.70;67.10;;;;;;5056899;28;20452;-78
2023/03/20 06:31:32;;;;;;;20.00;15.83;;;10.50;43.90;;;;;;5057747;28;20535;-77
2023/03/20 06:33:59;;;;;;;18.63;15.20;;;10.60;71.90;;;;;;5057459;28;20448;-78
2023/03/20 06:36:25;;;;;;;25.93;18.50;;;10.60;77.40;;;;;;5057095;28;20577;-78
2023/03/20 06:38:52;;;;;;;21.23;17.60;;;10.20;99.90;;;;;;5057343;28;20984;-78
2023/03/20 06:41:19;;;;;;;30.13;21.50;;;10.40;64.00;;;;;;5057358;28;20448;-78
2023/03/20 06:43:47;;;;;;;30.90;21.97;;;10.40;36.30;;;;;;5057846;28;20478;-78
2023/03/20 06:46:14;;;;;;;31.07;24.60;;;10.20;33.40;;;;;;5057999;28;20851;-78
2023/03/20 06:48:41;;;;;;;35.57;24.33;;;10.00;35.60;;;;;;5057148;28;20509;-78
2023/03/20 06:51:08;;;;;;;35.30;25.27;;;10.10;69.40;;;;;;5055670;28;20917;-78
2023/03/20 06:53:35;;;;;;;43.00;26.20;;;10.10;87.70;;;;;;5057894;28;20456;-78
2023/03/20 06:56:02;;;;;;;34.27;25.80;;;10.20;99.90;;;;;;5060221;28;20446;-78
2023/03/20 06:58:29;;;;;;;36.97;25.07;;;10.20;98.80;;;;;;5061774;28;20488;-78
2023/03/20 07:00:57;;;;;;;50.80;29.73;;;10.10;99.90;;;;;;5056976;28;20423;-78
2023/03/20 07:03:24;;;;;;;43.70;28.33;;;10.10;99.90;;;;;;5055204;28;20517;-78
2023/03/20 07:05:51;;;;;;;40.73;28.53;;;9.90;99.90;;;;;;5054385;28;20438;-78
2023/03/20 07:08:17;;;;;;;40.80;28.93;;;9.90;97.90;;;;;;5053805;28;20425;-78
2023/03/20 07:10:45;;;;;;;54.17;32.20;;;9.90;99.90;;;;;;5053203;28;20972;-78
2023/03/20 07:13:11;;;;;;;50.10;32.07;;;9.80;99.90;;;;;;5054425;28;20426;-79
2023/03/20 07:15:38;;;;;;;49.70;32.13;;;9.90;99.90;;;;;;5054582;28;20475;-78
2023/03/20 07:18:07;;;;;;;44.90;28.97;;;9.80;99.90;;;;;;5054798;28;20482;-78
2023/03/20 07:20:34;;;;;;;43.57;28.83;;;9.90;99.90;;;;;;5055273;28;20434;-78
2023/03/20 07:23:00;;;;;;;37.97;24.10;;;9.70;99.90;;;;;;5054054;28;20432;-78
2023/03/20 07:25:27;;;;;;;39.37;26.10;;;9.30;99.90;;;;;;5054302;28;20549;-78
2023/03/20 07:27:54;;;;;;;36.97;22.80;;;9.50;99.90;;;;;;5054563;28;20513;-79
2023/03/20 07:30:21;;;;;;;40.60;25.00;;;9.40;99.90;;;;;;5057027;28;20989;-78
2023/03/20 07:32:48;;;;;;;41.70;25.87;;;9.40;99.90;;;;;;5055753;28;20443;-78
2023/03/20 07:35:16;;;;;;;36.60;25.20;;;9.60;99.90;;;;;;5056242;28;20555;-78
2023/03/20 07:37:43;;;;;;;35.07;23.63;;;9.70;99.90;;;;;;5057989;28;20535;-78
2023/03/20 07:40:11;;;;;;;40.87;26.00;;;9.70;99.90;;;;;;5064432;28;20466;-77
2023/03/20 07:42:38;;;;;;;38.90;26.40;;;9.80;99.90;;;;;;5076379;28;20466;-77
2023/03/20 07:45:06;;;;;;;39.33;26.70;;;9.70;99.90;;;;;;5068864;28;20473;-77
2023/03/20 07:47:33;;;;;;;41.60;24.80;;;9.70;98.20;;;;;;5057161;28;20441;-78
2023/03/20 07:50:00;;;;;;;36.20;23.23;;;9.80;99.90;;;;;;5056852;28;20444;-78
2023/03/20 07:52:28;;;;;;;44.67;23.40;;;9.80;99.90;;;;;;5060287;28;20446;-78
2023/03/20 07:54:55;;;;;;;38.10;23.17;;;9.80;99.90;;;;;;5059784;28;20540;-78
2023/03/20 07:57:22;;;;;;;39.27;22.73;;;9.40;99.90;;;;;;5060541;28;20800;-78
2023/03/20 07:59:48;;;;;;;35.67;21.70;;;9.40;90.50;;;;;;5063618;28;20463;-77
2023/03/20 08:02:16;;;;;;;44.20;21.93;;;9.30;63.00;;;;;;5060821;28;20530;-77
2023/03/20 08:04:43;;;;;;;39.13;24.53;;;9.20;99.90;;;;;;5059313;28;20534;-78
2023/03/20 08:07:10;;;;;;;37.33;22.37;;;9.30;57.60;;;;;;5056589;28;20464;-77
2023/03/20 08:09:39;;;;;;;43.17;26.53;;;9.40;92.20;;;;;;5057556;28;20452;-77
2023/03/20 08:12:06;;;;;;;48.13;27.97;;;9.50;83.40;;;;;;5058691;28;20443;-78
2023/03/20 08:14:34;;;;;;;51.80;28.93;;;9.70;99.90;;;;;;5058376;28;20452;-79
2023/03/20 08:17:01;;;;;;;51.33;28.03;;;9.80;90.40;;;;;;5057608;28;20451;-78
2023/03/20 08:19:28;;;;;;;44.73;26.47;;;9.60;1.00;;;;;;5059623;28;20491;-78
2023/03/20 08:21:55;;;;;;;44.57;25.60;;;9.70;51.70;;;;;;5060765;28;20452;-77
2023/03/20 08:24:22;;;;;;;44.43;26.57;;;9.90;19.60;;;;;;5058869;28;20523;-78
2023/03/20 08:26:50;;;;;;;41.90;24.20;;;9.80;1.00;;;;;;5056958;28;20475;-78
2023/03/20 08:29:18;;;;;;;40.03;23.83;;;10.10;25.60;;;;;;5057912;28;20460;-79
2023/03/20 08:31:45;;;;;;;34.27;20.73;;;9.90;1.00;;;;;;5058707;28;20460;-79
2023/03/20 08:34:12;;;;;;;39.83;19.33;;;10.00;1.00;;;;;;5057612;28;20506;-79
2023/03/20 08:36:39;;;;;;;34.13;19.47;;;10.10;1.00;;;;;;5058776;28;20478;-79
2023/03/20 08:39:07;;;;;;;40.80;20.27;;;10.00;1.00;;;;;;5057939;28;20533;-79
2023/03/20 08:41:34;;;;;;;28.40;17.53;;;10.00;1.00;;;;;;5058218;28;20511;-79
2023/03/20 08:44:02;;;;;;;35.33;18.93;;;9.90;1.00;;;;;;5057780;28;20423;-79
2023/03/20 08:46:29;;;;;;;35.37;17.57;;;10.10;1.00;;;;;;5057534;28;20522;-79
2023/03/20 08:48:57;;;;;;;30.07;18.60;;;10.20;99.90;;;;;;5058748;28;20535;-78
2023/03/20 08:51:24;;;;;;;32.80;17.57;;;10.10;1.00;;;;;;5055992;28;20424;-79
2023/03/20 08:53:51;;;;;;;30.10;16.87;;;10.70;99.90;;;;;;5056794;28;20423;-78
2023/03/20 08:56:18;;;;;;;32.07;16.87;;;10.80;1.00;;;;;;5057171;28;20479;-79
2023/03/20 08:58:45;;;;;;;25.23;16.33;;;10.80;99.90;;;;;;5057955;28;20458;-80
2023/03/20 09:01:14;;;;;;;32.93;18.40;;;11.10;1.00;;;;;;5060718;28;20456;-79
2023/03/20 09:03:41;;;;;;;29.40;16.83;;;11.20;1.00;;;;;;5056821;28;20431;-79
2023/03/20 09:06:09;;;;;;;25.80;15.80;;;11.30;99.90;;;;;;5058957;28;20498;-80
2023/03/20 09:08:36;;;;;;;21.40;15.17;;;11.50;99.90;;;;;;5059167;28;20511;-79
2023/03/20 09:11:04;;;;;;;24.83;16.33;;;11.50;99.90;;;;;;5059705;28;20534;-78
2023/03/20 09:13:31;;;;;;;24.17;15.83;;;11.80;1.00;;;;;;5057150;28;20418;-79
2023/03/20 09:15:58;;;;;;;26.40;16.23;;;11.70;99.90;;;;;;5056315;28;20556;-79
2023/03/20 09:18:26;;;;;;;25.47;15.20;;;11.70;1.00;;;;;;5057339;28;20438;-80
2023/03/20 09:20:55;;;;;;;24.87;14.97;;;11.90;1.00;;;;;;5057168;28;20462;-79
2023/03/20 09:23:22;;;;;;;19.93;13.53;;;12.10;1.00;;;;;;5057394;28;20476;-79
2023/03/20 09:25:49;;;;;;;24.70;14.27;;;12.10;99.90;;;;;;5057677;28;20467;-79
2023/03/20 09:28:16;;;;;;;19.23;12.40;;;12.20;1.00;;;;;;5058766;28;20448;-79
2023/03/20 09:30:43;;;;;;;23.53;13.00;;;12.30;27.40;;;;;;5065023;28;20455;-79
2023/03/20 09:33:10;;;;;;;18.27;12.50;;;12.20;1.00;;;;;;5079591;28;20456;-77
2023/03/20 09:35:38;;;;;;;19.27;12.40;;;12.00;1.00;;;;;;5079701;28;20477;-77
2023/03/20 09:38:06;;;;;;;22.73;13.23;;;12.00;99.90;;;;;;5074399;28;20459;-79
2023/03/20 09:40:48;;;;;;;22.73;14.20;;;11.90;1.00;;;;;;5061152;28;20483;-79
2023/03/20 09:43:22;;;;;;;18.40;12.13;;;12.00;1.00;;;;;;5060924;28;20508;-79
2023/03/20 09:45:56;;;;;;;15.03;11.40;;;12.20;12.70;;;;;;5059932;28;20509;-79
2023/03/20 09:48:31;;;;;;;21.30;12.50;;;12.30;99.90;;;;;;5058708;28;20437;-79
2023/03/20 09:51:07;;;;;;;17.30;11.67;;;11.90;99.90;;;;;;5062096;28;20473;-78
2023/03/20 09:53:38;;;;;;;15.57;10.37;;;12.10;1.00;;;;;;5059160;28;20435;-79
2023/03/20 09:56:09;;;;;;;17.83;11.80;;;12.20;99.90;;;;;;5057980;28;20491;-79
2023/03/20 09:58:38;;;;;;;19.93;12.87;;;12.30;1.00;;;;;;5056591;28;20438;-78
2023/03/20 10:01:07;;;;;;;18.17;11.70;;;12.10;99.90;;;;;;5057083;28;20563;-77
2023/03/20 10:03:42;;;;;;;20.50;12.70;;;12.30;99.90;;;;;;5057579;28;20476;-79
2023/03/20 10:06:15;;;;;;;16.00;11.60;;;12.30;99.90;;;;;;5059217;28;20475;-80
2023/03/20 10:08:43;;;;;;;23.07;12.57;;;12.00;99.90;;;;;;5058020;28;20441;-79
2023/03/20 10:11:36;;;;;;;22.13;12.17;;;11.90;1.00;;;;;;5060049;28;20515;-80
2023/03/20 10:14:15;;;;;;;27.37;12.20;;;11.90;1.00;;;;;;5056037;28;20478;-79
2023/03/20 10:16:58;;;;;;;14.63;11.93;;;11.80;43.00;;;;;;5057348;28;20527;-80
2023/03/20 10:19:29;;;;;;;17.37;11.80;;;11.80;1.00;;;;;;5057779;28;20852;-79
2023/03/20 10:22:02;;;;;;;21.70;12.10;;;12.00;1.00;;;;;;5056677;28;20447;-78
2023/03/20 10:24:32;;;;;;;20.60;11.87;;;11.90;1.00;;;;;;5058685;28;20432;-78
2023/03/20 10:27:05;;;;;;;31.33;12.60;;;11.80;1.00;;;;;;5060845;28;20981;-82
2023/03/20 10:29:44;;;;;;;19.10;10.63;;;11.70;1.00;;;;;;5055738;28;20534;-80
2023/03/20 10:32:18;;;;;;;16.57;10.47;;;11.90;99.90;;;;;;5057074;28;20531;-79
2023/03/20 10:34:57;;;;;;;19.83;11.30;;;11.80;1.00;;;;;;5057944;28;20443;-79
2023/03/20 10:37:45;;;;;;;33.80;12.30;;;11.70;1.00;;;;;;5059936;28;20465;-79
2023/03/20 10:40:28;;;;;;;31.47;11.60;;;11.60;1.00;;;;;;5057556;28;20487;-81
2023/03/20 10:43:01;;;;;;;14.70;10.30;;;11.50;1.00;;;;;;5057761;28;20431;-80
2023/03/20 10:45:34;;;;;;;13.67;9.73;;;11.60;1.00;;;;;;5059264;28;20475;-79
2023/03/20 10:48:07;;;;;;;16.90;9.57;;;11.70;1.00;;;;;;5058290;28;20511;-80
2023/03/20 10:50:40;;;;;;;14.23;8.60;;;11.70;99.90;;;;;;5058393;28;20433;-80
2023/03/20 10:53:18;;;;;;;12.60;8.87;;;11.80;99.90;;;;;;5058691;28;20414;-78
2023/03/20 10:55:46;;;;;;;20.33;10.30;;;11.70;99.90;;;;;;5077365;28;20471;-79
2023/03/20 10:58:18;;;;;;;13.27;9.60;;;11.60;99.90;;;;;;5070301;28;20834;-81
2023/03/20 11:00:45;;;;;;;14.47;8.93;;;11.50;1.00;;;;;;5057996;28;20504;-81
2023/03/20 11:03:21;;;;;;;11.97;9.27;;;11.60;1.00;;;;;;5058056;28;20475;-80
2023/03/20 11:05:51;;;;;;;13.73;10.50;;;11.70;99.90;;;;;;5061053;28;20467;-79
2023/03/20 11:08:22;;;;;;;18.20;9.17;;;11.90;1.00;;;;;;5062213;28;20524;-80
2023/03/20 11:10:58;;;;;;;13.67;8.67;;;11.70;99.90;;;;;;5059872;28;20463;-79
2023/03/20 11:13:30;;;;;;;17.00;9.30;;;11.90;1.00;;;;;;5059187;28;20524;-80
2023/03/20 11:15:57;;;;;;;23.23;9.03;;;11.80;99.90;;;;;;5057848;28;20475;-79
2023/03/20 11:18:25;;;;;;;15.93;8.20;;;12.20;99.90;;;;;;5058680;28;20451;-80
2023/03/20 11:20:55;;;;;;;11.40;9.07;;;11.90;99.90;;;;;;5057582;28;20484;-79
2023/03/20 11:23:29;;;;;;;11.80;8.53;;;12.10;1.00;;;;;;5057840;28;20452;-80
2023/03/20 11:25:59;;;;;;;12.23;7.17;;;12.10;99.90;;;;;;5056842;28;20493;-80
2023/03/20 11:28:33;;;;;;;11.07;7.80;;;12.10;99.90;;;;;;5061712;28;20437;-79
2023/03/20 11:31:04;;;;;;;12.53;8.50;;;12.30;99.90;;;;;;5062290;28;20522;-79
2023/03/20 11:33:33;;;;;;;13.03;7.47;;;12.60;99.90;;;;;;5062056;28;20440;-79
2023/03/20 11:36:00;;;;;;;15.40;7.30;;;12.20;6.60;;;;;;5061521;28;20477;-79
2023/03/20 11:38:31;;;;;;;11.93;8.33;;;12.20;79.10;;;;;;5062180;28;20452;-80
2023/03/20 11:40:57;;;;;;;17.13;7.17;;;12.40;50.70;;;;;;5067119;28;20467;-80
2023/03/20 11:43:26;;;;;;;9.70;7.07;;;12.40;99.90;;;;;;5070064;28;20569;-80
2023/03/20 11:45:56;;;;;;;14.60;7.73;;;12.40;58.50;;;;;;5067658;28;20484;-79
2023/03/20 11:48:26;;;;;;;14.87;8.60;;;12.40;7.30;;;;;;5074412;28;20455;-80
2023/03/20 11:51:01;;;;;;;9.53;6.60;;;12.40;1.00;;;;;;5068397;28;20539;-78
2023/03/20 11:53:33;;;;;;;11.60;7.60;;;12.60;1.00;;;;;;5069909;28;20464;-79
2023/03/20 11:56:05;;;;;;;13.43;8.73;;;12.50;1.00;;;;;;5072836;28;20469;-81
2023/03/20 11:58:33;;;;;;;14.13;8.20;;;12.60;12.10;;;;;;5072779;28;20427;-79
2023/03/20 12:01:02;;;;;;;10.27;8.10;;;12.60;99.90;;;;;;5071943;28;20485;-79
2023/03/20 12:03:54;;;;;;;10.67;7.37;;;12.60;76.10;;;;;;5065932;28;20474;-80
2023/03/20 12:06:23;;;;;;;10.47;7.80;;;12.60;99.90;;;;;;5063477;28;21021;-81
2023/03/20 12:08:56;;;;;;;13.40;7.53;;;12.30;1.00;;;;;;5062945;28;20455;-80
2023/03/20 12:11:47;;;;;;;10.70;7.97;;;12.20;12.20;;;;;;5059402;28;20454;-79
2023/03/20 12:14:23;;;;;;;16.53;10.00;;;12.00;99.90;;;;;;5056758;28;20451;-80
2023/03/20 12:16:55;;;;;;;13.67;8.33;;;12.10;99.90;;;;;;5062018;28;20471;-80
2023/03/20 12:19:29;;;;;;;11.20;7.40;;;12.20;86.00;;;;;;5062487;28;20510;-79
2023/03/20 12:22:03;;;;;;;9.70;6.57;;;12.50;99.90;;;;;;5062463;28;20436;-80
2023/03/20 12:24:38;;;;;;;11.13;7.70;;;12.20;99.90;;;;;;5062068;28;20475;-79
2023/03/20 12:27:20;;;;;;;10.63;7.10;;;12.30;30.20;;;;;;5062172;28;20486;-80
2023/03/20 12:29:52;;;;;;;11.23;6.47;;;12.70;99.90;;;;;;5061626;28;20435;-79
2023/03/20 12:32:26;;;;;;;12.07;7.00;;;12.70;99.90;;;;;;5063231;28;20923;-80
2023/03/20 12:34:57;;;;;;;10.53;7.37;;;12.70;1.00;;;;;;5070498;28;20473;-80
2023/03/20 12:37:24;;;;;;;9.00;7.93;;;12.90;1.00;;;;;;5074956;28;20440;-79
2023/03/20 12:39:55;;;;;;;11.90;7.60;;;13.00;1.00;;;;;;5071049;28;20478;-78
2023/03/20 12:42:37;;;;;;;11.40;7.33;;;13.00;1.00;;;;;;5069117;28;20496;-78
2023/03/20 12:45:11;;;;;;;11.40;8.13;;;12.90;1.00;;;;;;5067313;28;21021;-78
2023/03/20 12:48:08;;;;;;;12.63;8.43;;;12.80;1.00;;;;;;5068969;28;20471;-78
2023/03/20 12:50:36;;;;;;;13.53;7.60;;;12.70;1.00;;;;;;5040615;28;20922;-79
2023/03/20 12:53:17;;;;;;;10.83;7.20;;;12.50;1.00;;;;;;5077188;28;20439;-79
2023/03/20 12:55:57;;;;;;;16.00;9.67;;;12.40;1.00;;;;;;5076463;28;20486;-79
2023/03/20 12:58:35;;;;;;;9.10;7.47;;;12.20;1.00;;;;;;5076935;28;20435;-79